Camp Dodge, Iowa
Current Conditions -  °F | °C
As of 5:55 AM on Monday 24 Nov 2014 (Local Time) from KIKV Reporting Station
Overcast Overcast  
Wind Chill: -10°   Ceiling: 2000
Heat Index: -2°   Visibility: 10mi
Dew Point: -6°   Wind: 25mph
Humidity: 74%   Direction: 300°WNW
Pressure: 29.43"   Gusts: 32mph
Location:  41.689°N, 93.7182°W
Report Text: KIKV 241155Z AUTO 30022G28KT 10SM OVC020 M02/M06 A2943 RMK AO2
Loading
Personal Weather Stations






























Interactive Weather Map New forecast layout! Learn more

10-Day Weather Forecast

Advertisements
Track Severe Weather on mobile